Madison Township, Pennsylvania
Current Conditions -  °F | °C
As of 8:39 AM on Friday 28 Nov 2014 (Local Time) from KAVP Reporting Station
Overcast Overcast  
Wind Chill: 19°   Ceiling: 4400
Heat Index: 28°   Visibility: 10mi
Dew Point: 20°   Wind: 10mph
Humidity: 72%   Direction: 280°W
Pressure: 30.18"   Gusts: NA
Location:  41.3369°N, 75.5571°W
Report Text: KAVP 281339Z 28009KT 10SM SCT023 BKN044 OVC050 M02/M07 A3018 RMK AO2 SNB1259E31 P0000 T10221067
Loading
Personal Weather Stations






























Interactive Weather Map New forecast layout! Learn more

10-Day Weather Forecast

Advertisements
Track Severe Weather on mobile